sensor_id;sensor_type;location;lat;lon;timestamp;temperature;humidity
11107;DHT22;5607;48.302;14.294;2022-12-29T00:00:03;3.20;1.00
11107;DHT22;5607;48.302;14.294;2022-12-29T00:02:50;3.20;1.00
11107;DHT22;5607;48.302;14.294;2022-12-29T00:05:36;3.30;1.00
11107;DHT22;5607;48.302;14.294;2022-12-29T00:08:22;3.30;1.00
11107;DHT22;5607;48.302;14.294;2022-12-29T00:11:26;3.30;1.00
11107;DHT22;5607;48.302;14.294;2022-12-29T00:14:13;3.30;1.00
11107;DHT22;5607;48.302;14.294;2022-12-29T00:17:17;3.30;1.00
11107;DHT22;5607;48.302;14.294;2022-12-29T00:20:04;3.40;1.00
11107;DHT22;5607;48.302;14.294;2022-12-29T00:23:09;3.40;1.00
11107;DHT22;5607;48.302;14.294;2022-12-29T00:26:14;3.40;1.00
11107;DHT22;5607;48.302;14.294;2022-12-29T00:29:19;3.40;1.00
11107;DHT22;5607;48.302;14.294;2022-12-29T00:32:24;3.40;1.00
11107;DHT22;5607;48.302;14.294;2022-12-29T00:35:33;3.40;1.00
11107;DHT22;5607;48.302;14.294;2022-12-29T00:38:22;3.40;1.00
11107;DHT22;5607;48.302;14.294;2022-12-29T00:41:27;3.40;1.00
11107;DHT22;5607;48.302;14.294;2022-12-29T00:44:31;3.40;1.00
11107;DHT22;5607;48.302;14.294;2022-12-29T00:47:18;3.40;1.00
11107;DHT22;5607;48.302;14.294;2022-12-29T00:50:04;3.40;1.00
11107;DHT22;5607;48.302;14.294;2022-12-29T00:52:50;3.40;1.00
11107;DHT22;5607;48.302;14.294;2022-12-29T00:55:37;3.40;1.00
11107;DHT22;5607;48.302;14.294;2022-12-29T00:58:26;3.40;1.00
11107;DHT22;5607;48.302;14.294;2022-12-29T01:01:12;3.40;1.00
11107;DHT22;5607;48.302;14.294;2022-12-29T01:03:58;3.30;1.00
11107;DHT22;5607;48.302;14.294;2022-12-29T01:06:45;3.30;1.00
11107;DHT22;5607;48.302;14.294;2022-12-29T01:09:31;3.30;1.00
11107;DHT22;5607;48.302;14.294;2022-12-29T01:12:36;3.20;1.00
11107;DHT22;5607;48.302;14.294;2022-12-29T01:15:30;3.30;1.00
11107;DHT22;5607;48.302;14.294;2022-12-29T01:18:16;3.30;1.00
11107;DHT22;5607;48.302;14.294;2022-12-29T01:21:04;3.30;1.00
11107;DHT22;5607;48.302;14.294;2022-12-29T01:23:51;3.30;1.00
11107;DHT22;5607;48.302;14.294;2022-12-29T01:26:37;3.40;1.00
11107;DHT22;5607;48.302;14.294;2022-12-29T01:29:23;3.30;1.00
11107;DHT22;5607;48.302;14.294;2022-12-29T01:32:09;3.30;1.00
11107;DHT22;5607;48.302;14.294;2022-12-29T01:34:56;3.30;1.00
11107;DHT22;5607;48.302;14.294;2022-12-29T01:37:42;3.30;1.00
11107;DHT22;5607;48.302;14.294;2022-12-29T01:40:28;3.20;1.00
11107;DHT22;5607;48.302;14.294;2022-12-29T01:43:14;3.30;1.00
11107;DHT22;5607;48.302;14.294;2022-12-29T01:46:01;3.30;1.00
11107;DHT22;5607;48.302;14.294;2022-12-29T01:48:47;3.20;1.00
11107;DHT22;5607;48.302;14.294;2022-12-29T01:51:41;3.20;1.00
11107;DHT22;5607;48.302;14.294;2022-12-29T01:54:30;3.20;1.00
11107;DHT22;5607;48.302;14.294;2022-12-29T01:57:19;3.30;1.00
11107;DHT22;5607;48.302;14.294;2022-12-29T02:00:07;3.30;1.00
11107;DHT22;5607;48.302;14.294;2022-12-29T02:02:54;3.20;1.00
11107;DHT22;5607;48.302;14.294;2022-12-29T02:05:42;3.20;1.00
11107;DHT22;5607;48.302;14.294;2022-12-29T02:08:31;3.20;1.00
11107;DHT22;5607;48.302;14.294;2022-12-29T02:11:18;3.20;1.00
11107;DHT22;5607;48.302;14.294;2022-12-29T02:14:09;3.20;1.00
11107;DHT22;5607;48.302;14.294;2022-12-29T02:20:21;3.20;1.00
11107;DHT22;5607;48.302;14.294;2022-12-29T02:23:23;3.10;1.00
11107;DHT22;5607;48.302;14.294;2022-12-29T02:34:47;3.10;1.00
11107;DHT22;5607;48.302;14.294;2022-12-29T02:40:24;3.10;1.00
11107;DHT22;5607;48.302;14.294;2022-12-29T02:45:58;3.00;1.00
11107;DHT22;5607;48.302;14.294;2022-12-29T02:48:52;3.00;1.00
11107;DHT22;5607;48.302;14.294;2022-12-29T02:51:58;3.00;1.00
11107;DHT22;5607;48.302;14.294;2022-12-29T02:54:47;3.00;1.00
11107;DHT22;5607;48.302;14.294;2022-12-29T02:57:34;3.00;1.00
11107;DHT22;5607;48.302;14.294;2022-12-29T03:00:20;3.00;1.00
11107;DHT22;5607;48.302;14.294;2022-12-29T03:06:15;2.90;1.00
11107;DHT22;5607;48.302;14.294;2022-12-29T03:09:43;2.90;1.00
11107;DHT22;5607;48.302;14.294;2022-12-29T03:13:23;3.00;1.00
11107;DHT22;5607;48.302;14.294;2022-12-29T03:16:02;2.90;1.00
11107;DHT22;5607;48.302;14.294;2022-12-29T03:18:54;2.90;1.00
11107;DHT22;5607;48.302;14.294;2022-12-29T03:21:46;2.80;1.00
11107;DHT22;5607;48.302;14.294;2022-12-29T03:24:54;2.70;1.00
11107;DHT22;5607;48.302;14.294;2022-12-29T03:27:45;2.70;1.00
11107;DHT22;5607;48.302;14.294;2022-12-29T03:30:32;2.70;1.00
11107;DHT22;5607;48.302;14.294;2022-12-29T03:33:21;2.70;1.00
11107;DHT22;5607;48.302;14.294;2022-12-29T03:36:09;2.70;1.00
11107;DHT22;5607;48.302;14.294;2022-12-29T03:39:01;2.80;1.00
11107;DHT22;5607;48.302;14.294;2022-12-29T03:41:48;2.80;1.00
11107;DHT22;5607;48.302;14.294;2022-12-29T03:44:37;2.70;1.00
11107;DHT22;5607;48.302;14.294;2022-12-29T03:47:23;2.70;1.00
11107;DHT22;5607;48.302;14.294;2022-12-29T03:50:11;2.70;1.00
11107;DHT22;5607;48.302;14.294;2022-12-29T03:52:57;2.80;1.00
11107;DHT22;5607;48.302;14.294;2022-12-29T03:55:43;2.80;1.00
11107;DHT22;5607;48.302;14.294;2022-12-29T03:58:30;2.80;1.00
11107;DHT22;5607;48.302;14.294;2022-12-29T04:01:16;2.80;1.00
11107;DHT22;5607;48.302;14.294;2022-12-29T04:04:02;2.80;1.00
11107;DHT22;5607;48.302;14.294;2022-12-29T04:06:48;2.70;1.00
11107;DHT22;5607;48.302;14.294;2022-12-29T04:09:34;2.70;1.00
11107;DHT22;5607;48.302;14.294;2022-12-29T04:15:44;2.70;1.00
11107;DHT22;5607;48.302;14.294;2022-12-29T04:18:31;2.80;1.00
11107;DHT22;5607;48.302;14.294;2022-12-29T04:21:17;2.70;1.00
11107;DHT22;5607;48.302;14.294;2022-12-29T04:24:03;2.70;1.00
11107;DHT22;5607;48.302;14.294;2022-12-29T04:26:52;2.70;1.00
11107;DHT22;5607;48.302;14.294;2022-12-29T04:29:38;2.70;1.00
11107;DHT22;5607;48.302;14.294;2022-12-29T04:32:24;2.60;1.00
11107;DHT22;5607;48.302;14.294;2022-12-29T04:35:11;2.60;1.00
11107;DHT22;5607;48.302;14.294;2022-12-29T04:37:57;2.60;1.00
11107;DHT22;5607;48.302;14.294;2022-12-29T04:40:43;2.60;1.00
11107;DHT22;5607;48.302;14.294;2022-12-29T04:43:30;2.70;1.00
11107;DHT22;5607;48.302;14.294;2022-12-29T04:46:16;2.70;1.00
11107;DHT22;5607;48.302;14.294;2022-12-29T04:49:03;2.70;1.00
11107;DHT22;5607;48.302;14.294;2022-12-29T04:51:54;2.70;1.00
11107;DHT22;5607;48.302;14.294;2022-12-29T04:54:40;2.60;1.00
11107;DHT22;5607;48.302;14.294;2022-12-29T04:57:27;2.70;1.00
11107;DHT22;5607;48.302;14.294;2022-12-29T05:00:14;2.70;1.00
11107;DHT22;5607;48.302;14.294;2022-12-29T05:03:00;2.70;1.00
11107;DHT22;5607;48.302;14.294;2022-12-29T05:05:46;2.70;1.00
11107;DHT22;5607;48.302;14.294;2022-12-29T05:08:32;2.70;1.00
11107;DHT22;5607;48.302;14.294;2022-12-29T05:11:18;2.70;1.00
11107;DHT22;5607;48.302;14.294;2022-12-29T05:14:06;2.70;1.00
11107;DHT22;5607;48.302;14.294;2022-12-29T05:16:52;2.70;1.00
11107;DHT22;5607;48.302;14.294;2022-12-29T05:19:38;2.70;1.00
11107;DHT22;5607;48.302;14.294;2022-12-29T05:22:25;2.70;1.00
11107;DHT22;5607;48.302;14.294;2022-12-29T05:25:11;2.70;1.00
11107;DHT22;5607;48.302;14.294;2022-12-29T05:27:57;2.70;1.00
11107;DHT22;5607;48.302;14.294;2022-12-29T05:30:43;2.60;1.00
11107;DHT22;5607;48.302;14.294;2022-12-29T05:33:30;2.70;1.00
11107;DHT22;5607;48.302;14.294;2022-12-29T05:36:17;2.60;1.00
11107;DHT22;5607;48.302;14.294;2022-12-29T05:39:03;2.50;1.00
11107;DHT22;5607;48.302;14.294;2022-12-29T05:41:49;2.50;1.00
11107;DHT22;5607;48.302;14.294;2022-12-29T05:44:36;2.50;1.00
11107;DHT22;5607;48.302;14.294;2022-12-29T05:47:22;2.50;1.00
11107;DHT22;5607;48.302;14.294;2022-12-29T05:50:08;2.60;1.00
11107;DHT22;5607;48.302;14.294;2022-12-29T05:52:54;2.50;1.00
11107;DHT22;5607;48.302;14.294;2022-12-29T05:55:40;2.50;1.00
11107;DHT22;5607;48.302;14.294;2022-12-29T05:58:27;2.50;1.00
11107;DHT22;5607;48.302;14.294;2022-12-29T06:01:13;2.50;1.00
11107;DHT22;5607;48.302;14.294;2022-12-29T06:03:59;2.50;1.00
11107;DHT22;5607;48.302;14.294;2022-12-29T06:06:46;2.50;1.00
11107;DHT22;5607;48.302;14.294;2022-12-29T06:09:32;2.50;1.00
11107;DHT22;5607;48.302;14.294;2022-12-29T06:12:18;2.40;1.00
11107;DHT22;5607;48.302;14.294;2022-12-29T06:15:04;2.30;1.00
11107;DHT22;5607;48.302;14.294;2022-12-29T06:17:51;2.40;1.00
11107;DHT22;5607;48.302;14.294;2022-12-29T06:20:37;2.40;1.00
11107;DHT22;5607;48.302;14.294;2022-12-29T06:23:23;2.50;1.00
11107;DHT22;5607;48.302;14.294;2022-12-29T06:26:09;2.40;1.00
11107;DHT22;5607;48.302;14.294;2022-12-29T06:28:56;2.40;1.00
11107;DHT22;5607;48.302;14.294;2022-12-29T06:31:42;2.40;1.00
11107;DHT22;5607;48.302;14.294;2022-12-29T06:34:31;2.50;1.00
11107;DHT22;5607;48.302;14.294;2022-12-29T06:37:17;2.50;1.00
11107;DHT22;5607;48.302;14.294;2022-12-29T06:40:03;2.40;1.00
11107;DHT22;5607;48.302;14.294;2022-12-29T06:42:50;2.40;1.00
11107;DHT22;5607;48.302;14.294;2022-12-29T06:45:37;2.40;1.00
11107;DHT22;5607;48.302;14.294;2022-12-29T06:48:24;2.40;1.00
11107;DHT22;5607;48.302;14.294;2022-12-29T06:51:10;2.40;1.00
11107;DHT22;5607;48.302;14.294;2022-12-29T06:53:56;2.50;1.00
11107;DHT22;5607;48.302;14.294;2022-12-29T06:56:42;2.50;1.00
11107;DHT22;5607;48.302;14.294;2022-12-29T06:59:28;2.50;1.00
11107;DHT22;5607;48.302;14.294;2022-12-29T07:02:15;2.60;1.00
11107;DHT22;5607;48.302;14.294;2022-12-29T07:05:04;2.60;1.00
11107;DHT22;5607;48.302;14.294;2022-12-29T07:07:50;2.70;1.00
11107;DHT22;5607;48.302;14.294;2022-12-29T07:10:36;2.80;1.00
11107;DHT22;5607;48.302;14.294;2022-12-29T07:13:23;2.80;1.00
11107;DHT22;5607;48.302;14.294;2022-12-29T07:16:09;2.80;1.00
11107;DHT22;5607;48.302;14.294;2022-12-29T07:18:56;2.90;1.00
11107;DHT22;5607;48.302;14.294;2022-12-29T07:21:44;2.90;1.00
11107;DHT22;5607;48.302;14.294;2022-12-29T07:24:31;3.00;1.00
11107;DHT22;5607;48.302;14.294;2022-12-29T07:27:17;3.00;1.00
11107;DHT22;5607;48.302;14.294;2022-12-29T07:30:03;3.00;1.00
11107;DHT22;5607;48.302;14.294;2022-12-29T07:32:49;3.00;1.00
11107;DHT22;5607;48.302;14.294;2022-12-29T07:35:36;3.00;1.00
11107;DHT22;5607;48.302;14.294;2022-12-29T07:38:22;3.10;1.00
11107;DHT22;5607;48.302;14.294;2022-12-29T07:41:08;3.20;1.00
11107;DHT22;5607;48.302;14.294;2022-12-29T07:43:54;3.20;1.00
11107;DHT22;5607;48.302;14.294;2022-12-29T07:46:41;3.20;1.00
11107;DHT22;5607;48.302;14.294;2022-12-29T07:49:27;3.20;1.00
11107;DHT22;5607;48.302;14.294;2022-12-29T07:52:13;3.30;1.00
11107;DHT22;5607;48.302;14.294;2022-12-29T07:54:59;3.30;1.00
11107;DHT22;5607;48.302;14.294;2022-12-29T07:57:46;3.40;1.00
11107;DHT22;5607;48.302;14.294;2022-12-29T08:00:32;3.60;1.00
11107;DHT22;5607;48.302;14.294;2022-12-29T08:03:18;3.60;1.00
11107;DHT22;5607;48.302;14.294;2022-12-29T08:06:05;3.60;1.00
11107;DHT22;5607;48.302;14.294;2022-12-29T08:08:51;3.80;1.00
11107;DHT22;5607;48.302;14.294;2022-12-29T08:11:37;3.80;1.00
11107;DHT22;5607;48.302;14.294;2022-12-29T08:14:24;3.90;1.00
11107;DHT22;5607;48.302;14.294;2022-12-29T08:17:10;3.90;1.00
11107;DHT22;5607;48.302;14.294;2022-12-29T08:19:56;4.00;1.00
11107;DHT22;5607;48.302;14.294;2022-12-29T08:22:43;4.10;1.00
11107;DHT22;5607;48.302;14.294;2022-12-29T08:25:29;4.20;1.00
11107;DHT22;5607;48.302;14.294;2022-12-29T08:28:15;4.20;1.00
11107;DHT22;5607;48.302;14.294;2022-12-29T08:31:02;4.30;1.00
11107;DHT22;5607;48.302;14.294;2022-12-29T08:33:49;4.50;1.00
11107;DHT22;5607;48.302;14.294;2022-12-29T08:43:22;4.60;1.00
11107;DHT22;5607;48.302;14.294;2022-12-29T08:46:09;4.70;1.00
11107;DHT22;5607;48.302;14.294;2022-12-29T08:48:55;4.60;1.00
11107;DHT22;5607;48.302;14.294;2022-12-29T08:51:41;4.70;1.00
11107;DHT22;5607;48.302;14.294;2022-12-29T08:54:27;4.80;1.00
11107;DHT22;5607;48.302;14.294;2022-12-29T08:57:13;4.90;1.00
11107;DHT22;5607;48.302;14.294;2022-12-29T09:00:00;5.00;1.00
11107;DHT22;5607;48.302;14.294;2022-12-29T09:02:46;4.90;1.00
11107;DHT22;5607;48.302;14.294;2022-12-29T09:05:32;5.00;1.00
11107;DHT22;5607;48.302;14.294;2022-12-29T09:08:19;5.20;1.00
11107;DHT22;5607;48.302;14.294;2022-12-29T09:11:26;5.20;1.00
11107;DHT22;5607;48.302;14.294;2022-12-29T09:14:12;5.20;1.00
11107;DHT22;5607;48.302;14.294;2022-12-29T09:16:58;5.30;1.00
11107;DHT22;5607;48.302;14.294;2022-12-29T09:20:03;5.30;1.00
11107;DHT22;5607;48.302;14.294;2022-12-29T09:22:49;5.40;1.00
11107;DHT22;5607;48.302;14.294;2022-12-29T09:25:35;5.50;1.00
11107;DHT22;5607;48.302;14.294;2022-12-29T09:28:22;5.50;1.00
11107;DHT22;5607;48.302;14.294;2022-12-29T09:31:08;5.50;1.00
11107;DHT22;5607;48.302;14.294;2022-12-29T09:33:54;5.60;1.00
11107;DHT22;5607;48.302;14.294;2022-12-29T09:36:40;5.50;1.00
11107;DHT22;5607;48.302;14.294;2022-12-29T09:39:27;5.40;1.00
11107;DHT22;5607;48.302;14.294;2022-12-29T09:42:15;5.40;1.00
11107;DHT22;5607;48.302;14.294;2022-12-29T09:45:16;5.40;1.00
11107;DHT22;5607;48.302;14.294;2022-12-29T09:48:03;5.50;1.00
11107;DHT22;5607;48.302;14.294;2022-12-29T09:50:52;5.60;1.00
11107;DHT22;5607;48.302;14.294;2022-12-29T09:53:41;5.60;1.00
11107;DHT22;5607;48.302;14.294;2022-12-29T09:56:30;5.60;1.00
11107;DHT22;5607;48.302;14.294;2022-12-29T09:59:20;5.60;1.00
11107;DHT22;5607;48.302;14.294;2022-12-29T10:02:31;5.70;1.00
11107;DHT22;5607;48.302;14.294;2022-12-29T10:05:20;5.80;1.00
11107;DHT22;5607;48.302;14.294;2022-12-29T10:25:56;6.10;1.00
11107;DHT22;5607;48.302;14.294;2022-12-29T10:28:51;6.20;1.00
11107;DHT22;5607;48.302;14.294;2022-12-29T10:31:39;6.20;1.00
11107;DHT22;5607;48.302;14.294;2022-12-29T10:40:19;6.60;1.00
11107;DHT22;5607;48.302;14.294;2022-12-29T10:43:28;6.90;1.00
11107;DHT22;5607;48.302;14.294;2022-12-29T10:46:25;7.10;1.00
11107;DHT22;5607;48.302;14.294;2022-12-29T10:49:16;7.20;99.90
11107;DHT22;5607;48.302;14.294;2022-12-29T10:52:05;7.30;99.90
11107;DHT22;5607;48.302;14.294;2022-12-29T10:54:59;7.50;99.90
11107;DHT22;5607;48.302;14.294;2022-12-29T10:57:46;7.60;99.90
11107;DHT22;5607;48.302;14.294;2022-12-29T11:00:33;7.70;99.90
11107;DHT22;5607;48.302;14.294;2022-12-29T11:06:11;7.50;99.90
11107;DHT22;5607;48.302;14.294;2022-12-29T11:09:01;7.60;99.90
11107;DHT22;5607;48.302;14.294;2022-12-29T11:11:48;7.60;99.90
11107;DHT22;5607;48.302;14.294;2022-12-29T11:14:34;7.60;99.90
11107;DHT22;5607;48.302;14.294;2022-12-29T11:17:21;7.70;99.90
11107;DHT22;5607;48.302;14.294;2022-12-29T11:26:12;8.10;99.90
11107;DHT22;5607;48.302;14.294;2022-12-29T11:31:50;8.40;99.90
11107;DHT22;5607;48.302;14.294;2022-12-29T11:34:36;8.50;99.90
11107;DHT22;5607;48.302;14.294;2022-12-29T11:37:38;8.70;99.90
11107;DHT22;5607;48.302;14.294;2022-12-29T11:40:25;8.70;99.90
11107;DHT22;5607;48.302;14.294;2022-12-29T11:43:45;8.80;99.90
11107;DHT22;5607;48.302;14.294;2022-12-29T11:46:25;8.80;99.90
11107;DHT22;5607;48.302;14.294;2022-12-29T11:49:13;8.90;99.90
11107;DHT22;5607;48.302;14.294;2022-12-29T11:51:59;8.80;99.90
11107;DHT22;5607;48.302;14.294;2022-12-29T11:54:46;9.00;99.90
11107;DHT22;5607;48.302;14.294;2022-12-29T11:57:32;9.00;99.90
11107;DHT22;5607;48.302;14.294;2022-12-29T12:00:20;9.00;99.90
11107;DHT22;5607;48.302;14.294;2022-12-29T12:03:10;9.00;99.90
11107;DHT22;5607;48.302;14.294;2022-12-29T12:06:01;8.90;99.90
11107;DHT22;5607;48.302;14.294;2022-12-29T12:08:57;9.00;99.90
11107;DHT22;5607;48.302;14.294;2022-12-29T12:11:47;9.00;99.90
11107;DHT22;5607;48.302;14.294;2022-12-29T12:14:46;9.00;99.90
11107;DHT22;5607;48.302;14.294;2022-12-29T12:17:43;9.00;99.90
11107;DHT22;5607;48.302;14.294;2022-12-29T12:23:28;9.00;99.90
11107;DHT22;5607;48.302;14.294;2022-12-29T12:26:18;8.90;99.90
11107;DHT22;5607;48.302;14.294;2022-12-29T12:31:56;8.70;99.90
11107;DHT22;5607;48.302;14.294;2022-12-29T12:34:44;8.70;99.90
11107;DHT22;5607;48.302;14.294;2022-12-29T12:46:12;8.70;99.90
11107;DHT22;5607;48.302;14.294;2022-12-29T12:54:43;8.80;99.90
11107;DHT22;5607;48.302;14.294;2022-12-29T13:00:17;8.90;99.90
11107;DHT22;5607;48.302;14.294;2022-12-29T13:09:16;9.20;99.90
11107;DHT22;5607;48.302;14.294;2022-12-29T13:15:08;9.40;99.90
11107;DHT22;5607;48.302;14.294;2022-12-29T13:18:02;9.60;99.90
11107;DHT22;5607;48.302;14.294;2022-12-29T13:20:54;9.80;99.90
11107;DHT22;5607;48.302;14.294;2022-12-29T13:26:50;9.80;99.90
11107;DHT22;5607;48.302;14.294;2022-12-29T13:33:11;9.80;99.90
11107;DHT22;5607;48.302;14.294;2022-12-29T13:35:57;9.80;99.90
11107;DHT22;5607;48.302;14.294;2022-12-29T13:38:46;9.70;99.90
11107;DHT22;5607;48.302;14.294;2022-12-29T13:41:35;9.80;99.90
11107;DHT22;5607;48.302;14.294;2022-12-29T13:47:21;9.60;99.90
11107;DHT22;5607;48.302;14.294;2022-12-29T13:50:17;9.40;99.90
11107;DHT22;5607;48.302;14.294;2022-12-29T13:55:58;9.20;99.90
11107;DHT22;5607;48.302;14.294;2022-12-29T14:04:28;8.90;99.90
11107;DHT22;5607;48.302;14.294;2022-12-29T14:07:15;8.80;99.90
11107;DHT22;5607;48.302;14.294;2022-12-29T14:10:03;8.80;99.90
11107;DHT22;5607;48.302;14.294;2022-12-29T14:12:49;8.80;99.90
11107;DHT22;5607;48.302;14.294;2022-12-29T14:15:37;8.70;99.90
11107;DHT22;5607;48.302;14.294;2022-12-29T14:18:33;8.70;99.90
11107;DHT22;5607;48.302;14.294;2022-12-29T14:21:20;8.60;99.90
11107;DHT22;5607;48.302;14.294;2022-12-29T14:24:27;8.60;99.90
11107;DHT22;5607;48.302;14.294;2022-12-29T14:29:59;8.50;99.90
11107;DHT22;5607;48.302;14.294;2022-12-29T14:33:02;8.50;99.90
11107;DHT22;5607;48.302;14.294;2022-12-29T14:35:48;8.40;99.90
11107;DHT22;5607;48.302;14.294;2022-12-29T14:38:41;8.30;99.90
11107;DHT22;5607;48.302;14.294;2022-12-29T14:47:42;8.10;99.90
11107;DHT22;5607;48.302;14.294;2022-12-29T14:50:42;8.10;99.90
11107;DHT22;5607;48.302;14.294;2022-12-29T14:53:45;8.00;99.90
11107;DHT22;5607;48.302;14.294;2022-12-29T14:56:32;8.00;99.90
11107;DHT22;5607;48.302;14.294;2022-12-29T14:59:18;8.00;99.90
11107;DHT22;5607;48.302;14.294;2022-12-29T15:02:13;7.90;99.90
11107;DHT22;5607;48.302;14.294;2022-12-29T15:05:01;7.80;99.90
11107;DHT22;5607;48.302;14.294;2022-12-29T15:07:48;7.80;99.90
11107;DHT22;5607;48.302;14.294;2022-12-29T15:10:40;7.80;99.90
11107;DHT22;5607;48.302;14.294;2022-12-29T15:13:35;7.70;99.90
11107;DHT22;5607;48.302;14.294;2022-12-29T15:19:20;7.60;99.90
11107;DHT22;5607;48.302;14.294;2022-12-29T15:22:07;7.60;99.90
11107;DHT22;5607;48.302;14.294;2022-12-29T15:24:55;7.60;99.90
11107;DHT22;5607;48.302;14.294;2022-12-29T15:27:41;7.50;99.90
11107;DHT22;5607;48.302;14.294;2022-12-29T15:30:27;7.50;99.90
11107;DHT22;5607;48.302;14.294;2022-12-29T15:33:21;7.40;99.90
11107;DHT22;5607;48.302;14.294;2022-12-29T15:36:11;7.40;99.90
11107;DHT22;5607;48.302;14.294;2022-12-29T15:38:58;7.30;99.90
11107;DHT22;5607;48.302;14.294;2022-12-29T15:41:50;7.30;99.90
11107;DHT22;5607;48.302;14.294;2022-12-29T15:44:49;7.30;99.90
11107;DHT22;5607;48.302;14.294;2022-12-29T15:47:36;7.20;99.90
11107;DHT22;5607;48.302;14.294;2022-12-29T15:50:27;7.20;99.90
11107;DHT22;5607;48.302;14.294;2022-12-29T15:53:32;7.10;99.90
11107;DHT22;5607;48.302;14.294;2022-12-29T15:56:18;7.10;99.90
11107;DHT22;5607;48.302;14.294;2022-12-29T15:59:05;7.10;99.90
11107;DHT22;5607;48.302;14.294;2022-12-29T16:01:51;7.00;99.90
11107;DHT22;5607;48.302;14.294;2022-12-29T16:04:37;7.00;99.90
11107;DHT22;5607;48.302;14.294;2022-12-29T16:07:28;7.00;99.90
11107;DHT22;5607;48.302;14.294;2022-12-29T16:10:30;6.90;99.90
11107;DHT22;5607;48.302;14.294;2022-12-29T16:13:40;6.80;99.90
11107;DHT22;5607;48.302;14.294;2022-12-29T16:16:30;6.80;99.90
11107;DHT22;5607;48.302;14.294;2022-12-29T16:19:33;6.80;99.90
11107;DHT22;5607;48.302;14.294;2022-12-29T16:22:32;6.80;99.90
11107;DHT22;5607;48.302;14.294;2022-12-29T16:25:22;6.70;99.90
11107;DHT22;5607;48.302;14.294;2022-12-29T16:28:20;6.60;99.90
11107;DHT22;5607;48.302;14.294;2022-12-29T16:31:24;6.60;99.90
11107;DHT22;5607;48.302;14.294;2022-12-29T16:34:11;6.60;99.90
11107;DHT22;5607;48.302;14.294;2022-12-29T16:37:02;6.50;99.90
11107;DHT22;5607;48.302;14.294;2022-12-29T16:39:48;6.50;99.90
11107;DHT22;5607;48.302;14.294;2022-12-29T16:42:36;6.50;99.90
11107;DHT22;5607;48.302;14.294;2022-12-29T16:51:05;6.40;99.90
11107;DHT22;5607;48.302;14.294;2022-12-29T16:53:52;6.40;99.90
11107;DHT22;5607;48.302;14.294;2022-12-29T16:56:40;6.40;99.90
11107;DHT22;5607;48.302;14.294;2022-12-29T17:02:16;6.40;1.00
11107;DHT22;5607;48.302;14.294;2022-12-29T17:05:05;6.40;1.00
11107;DHT22;5607;48.302;14.294;2022-12-29T17:07:51;6.40;1.00
11107;DHT22;5607;48.302;14.294;2022-12-29T17:10:38;6.50;1.00
11107;DHT22;5607;48.302;14.294;2022-12-29T17:13:43;6.50;1.00
11107;DHT22;5607;48.302;14.294;2022-12-29T17:16:29;6.40;1.00
11107;DHT22;5607;48.302;14.294;2022-12-29T17:19:20;6.30;1.00
11107;DHT22;5607;48.302;14.294;2022-12-29T17:22:12;6.30;1.00
11107;DHT22;5607;48.302;14.294;2022-12-29T17:24:59;6.30;1.00
11107;DHT22;5607;48.302;14.294;2022-12-29T17:27:53;6.20;1.00
11107;DHT22;5607;48.302;14.294;2022-12-29T17:30:41;6.10;1.00
11107;DHT22;5607;48.302;14.294;2022-12-29T17:33:35;6.10;1.00
11107;DHT22;5607;48.302;14.294;2022-12-29T17:36:22;6.10;1.00
11107;DHT22;5607;48.302;14.294;2022-12-29T17:39:08;6.10;1.00
11107;DHT22;5607;48.302;14.294;2022-12-29T17:41:55;6.00;1.00
11107;DHT22;5607;48.302;14.294;2022-12-29T17:44:41;6.00;1.00
11107;DHT22;5607;48.302;14.294;2022-12-29T17:47:27;5.90;1.00
11107;DHT22;5607;48.302;14.294;2022-12-29T17:50:18;5.90;1.00
11107;DHT22;5607;48.302;14.294;2022-12-29T17:53:05;5.90;1.00
11107;DHT22;5607;48.302;14.294;2022-12-29T17:55:52;5.90;1.00
11107;DHT22;5607;48.302;14.294;2022-12-29T17:58:38;5.90;1.00
11107;DHT22;5607;48.302;14.294;2022-12-29T18:01:24;5.90;1.00
11107;DHT22;5607;48.302;14.294;2022-12-29T18:04:12;5.90;1.00
11107;DHT22;5607;48.302;14.294;2022-12-29T18:06:58;5.80;1.00
11107;DHT22;5607;48.302;14.294;2022-12-29T18:09:45;5.80;1.00
11107;DHT22;5607;48.302;14.294;2022-12-29T18:12:34;5.80;1.00
11107;DHT22;5607;48.302;14.294;2022-12-29T18:15:24;5.80;1.00
11107;DHT22;5607;48.302;14.294;2022-12-29T18:18:11;5.80;1.00
11107;DHT22;5607;48.302;14.294;2022-12-29T18:20:58;5.80;1.00
11107;DHT22;5607;48.302;14.294;2022-12-29T18:23:45;5.80;1.00
11107;DHT22;5607;48.302;14.294;2022-12-29T18:26:31;5.70;1.00
11107;DHT22;5607;48.302;14.294;2022-12-29T18:29:20;5.70;1.00
11107;DHT22;5607;48.302;14.294;2022-12-29T18:32:11;5.70;1.00
11107;DHT22;5607;48.302;14.294;2022-12-29T18:34:57;5.70;1.00
11107;DHT22;5607;48.302;14.294;2022-12-29T18:37:43;5.70;1.00
11107;DHT22;5607;48.302;14.294;2022-12-29T18:40:30;5.70;1.00
11107;DHT22;5607;48.302;14.294;2022-12-29T18:43:16;5.70;1.00
11107;DHT22;5607;48.302;14.294;2022-12-29T18:46:03;5.70;1.00
11107;DHT22;5607;48.302;14.294;2022-12-29T18:48:49;5.70;1.00
11107;DHT22;5607;48.302;14.294;2022-12-29T18:51:36;5.60;1.00
11107;DHT22;5607;48.302;14.294;2022-12-29T18:54:29;5.70;1.00
11107;DHT22;5607;48.302;14.294;2022-12-29T18:57:19;5.60;1.00
11107;DHT22;5607;48.302;14.294;2022-12-29T19:00:05;5.60;1.00
11107;DHT22;5607;48.302;14.294;2022-12-29T19:02:52;5.60;1.00
11107;DHT22;5607;48.302;14.294;2022-12-29T19:05:39;5.60;1.00
11107;DHT22;5607;48.302;14.294;2022-12-29T19:08:25;5.60;1.00
11107;DHT22;5607;48.302;14.294;2022-12-29T19:11:12;5.60;1.00
11107;DHT22;5607;48.302;14.294;2022-12-29T19:13:58;5.50;1.00
11107;DHT22;5607;48.302;14.294;2022-12-29T19:16:44;5.50;1.00
11107;DHT22;5607;48.302;14.294;2022-12-29T19:19:30;5.40;1.00
11107;DHT22;5607;48.302;14.294;2022-12-29T19:22:16;5.30;1.00
11107;DHT22;5607;48.302;14.294;2022-12-29T19:25:03;5.30;1.00
11107;DHT22;5607;48.302;14.294;2022-12-29T19:27:50;5.20;1.00
11107;DHT22;5607;48.302;14.294;2022-12-29T19:30:37;5.10;1.00
11107;DHT22;5607;48.302;14.294;2022-12-29T19:33:23;5.00;1.00
11107;DHT22;5607;48.302;14.294;2022-12-29T19:36:10;4.90;1.00
11107;DHT22;5607;48.302;14.294;2022-12-29T19:38:58;4.90;1.00
11107;DHT22;5607;48.302;14.294;2022-12-29T19:41:45;4.80;1.00
11107;DHT22;5607;48.302;14.294;2022-12-29T19:44:31;4.80;1.00
11107;DHT22;5607;48.302;14.294;2022-12-29T19:47:17;4.80;1.00
11107;DHT22;5607;48.302;14.294;2022-12-29T19:50:04;4.80;1.00
11107;DHT22;5607;48.302;14.294;2022-12-29T19:52:51;4.80;1.00
11107;DHT22;5607;48.302;14.294;2022-12-29T19:55:40;4.90;1.00
11107;DHT22;5607;48.302;14.294;2022-12-29T19:58:27;5.00;1.00
11107;DHT22;5607;48.302;14.294;2022-12-29T20:01:18;5.00;1.00
11107;DHT22;5607;48.302;14.294;2022-12-29T20:04:05;5.00;1.00
11107;DHT22;5607;48.302;14.294;2022-12-29T20:06:51;5.00;1.00
11107;DHT22;5607;48.302;14.294;2022-12-29T20:09:37;5.00;1.00
11107;DHT22;5607;48.302;14.294;2022-12-29T20:12:23;5.10;1.00
11107;DHT22;5607;48.302;14.294;2022-12-29T20:15:10;5.10;1.00
11107;DHT22;5607;48.302;14.294;2022-12-29T20:17:56;5.10;1.00
11107;DHT22;5607;48.302;14.294;2022-12-29T20:20:42;5.10;1.00
11107;DHT22;5607;48.302;14.294;2022-12-29T20:23:29;5.10;1.00
11107;DHT22;5607;48.302;14.294;2022-12-29T20:26:17;5.20;1.00
11107;DHT22;5607;48.302;14.294;2022-12-29T20:29:03;5.20;1.00
11107;DHT22;5607;48.302;14.294;2022-12-29T20:31:50;5.10;1.00
11107;DHT22;5607;48.302;14.294;2022-12-29T20:34:37;5.10;1.00